DAL3802 KSEA-KPDX
Flight info
| Callsign | DAL3802 |
|---|---|
| Flight time | 0h 29m |
| Altitude | 13000 |
| Route | SEA1 SEA BUWZO KRATR3 |
| Aircraft | A321/M-SDE3FGHIRWY/LB1 |
Departure
| Time | 2026-05-06 22:52 |
|---|---|
| Airport | Seattle–Tacoma International Airport (KSEA) |
Arrival
| Time | 2026-05-06 23:22 |
|---|---|
| Airport | Portland International Airport (KPDX) |
| Time | Latitude | Longitude | Altitude | Speed | Heading |
|---|---|---|---|---|---|
| 2026-05-06 22:17 | 47.44184 | -122.30467 | 394 ft | 0 kts | 91° |
| 2026-05-06 22:39 | 47.44184 | -122.30487 | 394 ft | 4 kts | 87° |
| 2026-05-06 22:39 | 47.44183 | -122.30521 | 394 ft | 4 kts | 69° |
| 2026-05-06 22:39 | 47.44168 | -122.30543 | 394 ft | 4 kts | 6° |
| 2026-05-06 22:40 | 47.44143 | -122.30544 | 394 ft | 2 kts | 0° |
| 2026-05-06 22:40 | 47.44138 | -122.30544 | 394 ft | 0 kts | 0° |
| 2026-05-06 22:43 | 47.44150 | -122.30544 | 394 ft | 7 kts | 0° |
| 2026-05-06 22:44 | 47.44229 | -122.30544 | 394 ft | 11 kts | 359° |
| 2026-05-06 22:44 | 47.44302 | -122.30544 | 394 ft | 10 kts | 1° |
| 2026-05-06 22:44 | 47.44347 | -122.30581 | 394 ft | 7 kts | 284° |
| 2026-05-06 22:44 | 47.44365 | -122.30633 | 394 ft | 4 kts | 336° |
| 2026-05-06 22:45 | 47.44427 | -122.30632 | 394 ft | 15 kts | 0° |
| 2026-05-06 22:45 | 47.44528 | -122.30631 | 394 ft | 14 kts | 0° |
| 2026-05-06 22:45 | 47.44619 | -122.30629 | 394 ft | 12 kts | 1° |
| 2026-05-06 22:45 | 47.44699 | -122.30628 | 394 ft | 11 kts | 359° |
| 2026-05-06 22:46 | 47.44769 | -122.30630 | 394 ft | 9 kts | 359° |
| 2026-05-06 22:46 | 47.44840 | -122.30629 | 394 ft | 14 kts | 0° |
| 2026-05-06 22:46 | 47.44976 | -122.30629 | 394 ft | 24 kts | 0° |
| 2026-05-06 22:46 | 47.45136 | -122.30627 | 390 ft | 20 kts | 1° |
| 2026-05-06 22:47 | 47.45226 | -122.30625 | 394 ft | 19 kts | 1° |
| 2026-05-06 22:47 | 47.45354 | -122.30624 | 389 ft | 18 kts | 0° |
| 2026-05-06 22:47 | 47.45472 | -122.30623 | 392 ft | 16 kts | 0° |
| 2026-05-06 22:47 | 47.45579 | -122.30622 | 390 ft | 15 kts | 0° |
| 2026-05-06 22:48 | 47.45677 | -122.30621 | 391 ft | 13 kts | 0° |
| 2026-05-06 22:48 | 47.45764 | -122.30621 | 394 ft | 12 kts | 0° |
| 2026-05-06 22:48 | 47.45844 | -122.30620 | 388 ft | 13 kts | 0° |
| 2026-05-06 22:48 | 47.45955 | -122.30619 | 392 ft | 17 kts | 0° |
| 2026-05-06 22:49 | 47.46072 | -122.30617 | 390 ft | 16 kts | 1° |
| 2026-05-06 22:49 | 47.46178 | -122.30617 | 391 ft | 15 kts | 359° |
| 2026-05-06 22:49 | 47.46258 | -122.30618 | 392 ft | 1 kts | 360° |
| 2026-05-06 22:49 | 47.46265 | -122.30618 | 394 ft | 1 kts | 359° |
| 2026-05-06 22:50 | 47.46286 | -122.30625 | 392 ft | 9 kts | 334° |
| 2026-05-06 22:50 | 47.46294 | -122.30742 | 389 ft | 12 kts | 264° |
| 2026-05-06 22:50 | 47.46247 | -122.30783 | 394 ft | 0 kts | 177° |
| 2026-05-06 22:51 | 47.46235 | -122.30782 | 393 ft | 10 kts | 177° |
| 2026-05-06 22:51 | 47.45910 | -122.30783 | 390 ft | 81 kts | 181° |
| 2026-05-06 22:52 | 47.45142 | -122.30790 | 394 ft | 137 kts | 180° |
| 2026-05-06 22:52 | 47.44045 | -122.30799 | 434 ft | 174 kts | 181° |
| 2026-05-06 22:52 | 47.42823 | -122.30768 | 1005 ft | 176 kts | 179° |
| 2026-05-06 22:52 | 47.41608 | -122.30639 | 1714 ft | 175 kts | 176° |
| 2026-05-06 22:53 | 47.40391 | -122.30488 | 2312 ft | 180 kts | 178° |
| 2026-05-06 22:53 | 47.39074 | -122.30331 | 2542 ft | 200 kts | 179° |
| 2026-05-06 22:53 | 47.37605 | -122.30164 | 2716 ft | 224 kts | 178° |
| 2026-05-06 22:53 | 47.35985 | -122.29983 | 3069 ft | 244 kts | 178° |
| 2026-05-06 22:54 | 47.34260 | -122.29792 | 3768 ft | 251 kts | 178° |
| 2026-05-06 22:54 | 47.32498 | -122.29600 | 4548 ft | 256 kts | 178° |
| 2026-05-06 22:54 | 47.30701 | -122.29409 | 5310 ft | 262 kts | 178° |
| 2026-05-06 22:54 | 47.28860 | -122.29216 | 5995 ft | 269 kts | 180° |
| 2026-05-06 22:55 | 47.26970 | -122.29023 | 6641 ft | 277 kts | 180° |
| 2026-05-06 22:55 | 47.25031 | -122.28826 | 7289 ft | 282 kts | 180° |
| 2026-05-06 22:55 | 47.23063 | -122.28684 | 7982 ft | 284 kts | 185° |
| 2026-05-06 22:55 | 47.21076 | -122.28781 | 8704 ft | 287 kts | 187° |
| 2026-05-06 22:56 | 47.19071 | -122.28940 | 9430 ft | 290 kts | 188° |
| 2026-05-06 22:56 | 47.17074 | -122.29122 | 10134 ft | 294 kts | 188° |
| 2026-05-06 22:56 | 47.14937 | -122.29322 | 10381 ft | 315 kts | 188° |
| 2026-05-06 22:56 | 47.12669 | -122.29531 | 10510 ft | 338 kts | 187° |
| 2026-05-06 22:57 | 47.10300 | -122.29738 | 10841 ft | 351 kts | 187° |
| 2026-05-06 22:57 | 47.07843 | -122.29942 | 11428 ft | 356 kts | 187° |
| 2026-05-06 22:57 | 47.05357 | -122.30144 | 12065 ft | 360 kts | 187° |
| 2026-05-06 22:57 | 47.02843 | -122.30349 | 12688 ft | 364 kts | 188° |
| 2026-05-06 22:58 | 47.00303 | -122.30555 | 12942 ft | 366 kts | 188° |
| 2026-05-06 22:58 | 46.97740 | -122.30763 | 12999 ft | 373 kts | 188° |
| 2026-05-06 22:58 | 46.95141 | -122.30974 | 13000 ft | 375 kts | 187° |
| 2026-05-06 22:58 | 46.92529 | -122.31094 | 12997 ft | 376 kts | 185° |
| 2026-05-06 22:59 | 46.89905 | -122.31110 | 12987 ft | 377 kts | 184° |
| 2026-05-06 22:59 | 46.87280 | -122.31071 | 12993 ft | 377 kts | 184° |
| 2026-05-06 22:59 | 46.84656 | -122.31017 | 12989 ft | 377 kts | 184° |
| 2026-05-06 22:59 | 46.82030 | -122.30973 | 12992 ft | 377 kts | 184° |
| 2026-05-06 23:00 | 46.79425 | -122.30947 | 12987 ft | 370 kts | 184° |
| 2026-05-06 23:00 | 46.76827 | -122.30937 | 12997 ft | 376 kts | 184° |
| 2026-05-06 23:00 | 46.74207 | -122.30935 | 12990 ft | 378 kts | 184° |
| 2026-05-06 23:00 | 46.71579 | -122.30940 | 12988 ft | 377 kts | 184° |
| 2026-05-06 23:01 | 46.68952 | -122.30950 | 12985 ft | 377 kts | 184° |
| 2026-05-06 23:01 | 46.66327 | -122.30960 | 12990 ft | 378 kts | 185° |
| 2026-05-06 23:01 | 46.63703 | -122.30968 | 12989 ft | 377 kts | 184° |
| 2026-05-06 23:01 | 46.61091 | -122.30967 | 12991 ft | 377 kts | 184° |
| 2026-05-06 23:02 | 46.58469 | -122.30961 | 12988 ft | 377 kts | 184° |
| 2026-05-06 23:02 | 46.55839 | -122.30958 | 12973 ft | 378 kts | 184° |
| 2026-05-06 23:02 | 46.53207 | -122.30958 | 12977 ft | 378 kts | 184° |
| 2026-05-06 23:02 | 46.50576 | -122.30960 | 12978 ft | 378 kts | 184° |
| 2026-05-06 23:03 | 46.47949 | -122.30958 | 12979 ft | 377 kts | 184° |
| 2026-05-06 23:03 | 46.45323 | -122.30953 | 12981 ft | 377 kts | 184° |
| 2026-05-06 23:03 | 46.42704 | -122.30945 | 12979 ft | 377 kts | 184° |
| 2026-05-06 23:03 | 46.40086 | -122.30937 | 12985 ft | 376 kts | 184° |
| 2026-05-06 23:04 | 46.37499 | -122.30938 | 12990 ft | 376 kts | 184° |
| 2026-05-06 23:04 | 46.34878 | -122.30946 | 12989 ft | 377 kts | 184° |
| 2026-05-06 23:04 | 46.32257 | -122.30952 | 12987 ft | 376 kts | 184° |
| 2026-05-06 23:04 | 46.29637 | -122.30954 | 12991 ft | 377 kts | 184° |
| 2026-05-06 23:05 | 46.27018 | -122.31031 | 12983 ft | 375 kts | 189° |
| 2026-05-06 23:05 | 46.24478 | -122.31701 | 12980 ft | 369 kts | 200° |
| 2026-05-06 23:05 | 46.22079 | -122.32949 | 12991 ft | 366 kts | 205° |
| 2026-05-06 23:05 | 46.19703 | -122.34279 | 12986 ft | 366 kts | 206° |
| 2026-05-06 23:06 | 46.17341 | -122.35606 | 12854 ft | 360 kts | 205° |
| 2026-05-06 23:06 | 46.15036 | -122.36897 | 12538 ft | 351 kts | 205° |
| 2026-05-06 23:06 | 46.12758 | -122.38170 | 12027 ft | 349 kts | 205° |
| 2026-05-06 23:06 | 46.10561 | -122.39392 | 11876 ft | 325 kts | 205° |
| 2026-05-06 23:07 | 46.08510 | -122.40524 | 11385 ft | 309 kts | 205° |
| 2026-05-06 23:07 | 46.06536 | -122.41596 | 10992 ft | 299 kts | 205° |
| 2026-05-06 23:07 | 46.04601 | -122.42639 | 10699 ft | 296 kts | 205° |
| 2026-05-06 23:07 | 46.02670 | -122.43678 | 10338 ft | 295 kts | 205° |
| 2026-05-06 23:08 | 46.00747 | -122.44714 | 9886 ft | 297 kts | 205° |
| 2026-05-06 23:08 | 45.98832 | -122.45744 | 9582 ft | 291 kts | 205° |
| 2026-05-06 23:08 | 45.96943 | -122.46760 | 9047 ft | 289 kts | 205° |
| 2026-05-06 23:08 | 45.95065 | -122.47767 | 8522 ft | 287 kts | 204° |
| 2026-05-06 23:09 | 45.93114 | -122.48414 | 8000 ft | 290 kts | 189° |
| 2026-05-06 23:09 | 45.91099 | -122.48338 | 7463 ft | 291 kts | 174° |
| 2026-05-06 23:09 | 45.89101 | -122.47842 | 6919 ft | 290 kts | 173° |
| 2026-05-06 23:09 | 45.87122 | -122.47346 | 6405 ft | 287 kts | 173° |
| 2026-05-06 23:10 | 45.85215 | -122.46865 | 6287 ft | 268 kts | 173° |
| 2026-05-06 23:10 | 45.83433 | -122.46412 | 6215 ft | 255 kts | 173° |
| 2026-05-06 23:10 | 45.81690 | -122.45978 | 6104 ft | 252 kts | 173° |
| 2026-05-06 23:10 | 45.79965 | -122.45553 | 6000 ft | 251 kts | 173° |
| 2026-05-06 23:11 | 45.78248 | -122.45130 | 6010 ft | 250 kts | 173° |
| 2026-05-06 23:11 | 45.76529 | -122.44706 | 6011 ft | 251 kts | 173° |
| 2026-05-06 23:11 | 45.74830 | -122.44286 | 6006 ft | 251 kts | 173° |
| 2026-05-06 23:11 | 45.73151 | -122.43869 | 6042 ft | 239 kts | 173° |
| 2026-05-06 23:12 | 45.71521 | -122.43462 | 6011 ft | 237 kts | 173° |
| 2026-05-06 23:12 | 45.69899 | -122.43062 | 5974 ft | 237 kts | 173° |
| 2026-05-06 23:12 | 45.68279 | -122.42664 | 5739 ft | 235 kts | 173° |
| 2026-05-06 23:12 | 45.66669 | -122.42265 | 5524 ft | 234 kts | 173° |
| 2026-05-06 23:13 | 45.65071 | -122.41870 | 5296 ft | 232 kts | 173° |
| 2026-05-06 23:13 | 45.63483 | -122.41478 | 5050 ft | 230 kts | 173° |
| 2026-05-06 23:13 | 45.61911 | -122.41087 | 4797 ft | 229 kts | 172° |
| 2026-05-06 23:13 | 45.60355 | -122.40635 | 4545 ft | 229 kts | 162° |
| 2026-05-06 23:14 | 45.59103 | -122.39285 | 4341 ft | 231 kts | 125° |
| 2026-05-06 23:14 | 45.58637 | -122.37114 | 4145 ft | 232 kts | 91° |
| 2026-05-06 23:14 | 45.58574 | -122.34812 | 4021 ft | 232 kts | 100° |
| 2026-05-06 23:14 | 45.58076 | -122.32643 | 4000 ft | 231 kts | 114° |
| 2026-05-06 23:15 | 45.57445 | -122.30538 | 4000 ft | 231 kts | 115° |
| 2026-05-06 23:15 | 45.56789 | -122.28438 | 4001 ft | 232 kts | 115° |
| 2026-05-06 23:15 | 45.55893 | -122.26568 | 3992 ft | 228 kts | 143° |
| 2026-05-06 23:15 | 45.54479 | -122.25686 | 4002 ft | 222 kts | 177° |
| 2026-05-06 23:16 | 45.52983 | -122.26005 | 4015 ft | 218 kts | 200° |
| 2026-05-06 23:16 | 45.51568 | -122.26758 | 4003 ft | 217 kts | 203° |
| 2026-05-06 23:16 | 45.50182 | -122.27621 | 3902 ft | 217 kts | 214° |
| 2026-05-06 23:16 | 45.49226 | -122.29187 | 3690 ft | 210 kts | 249° |
| 2026-05-06 23:17 | 45.48961 | -122.31221 | 3501 ft | 209 kts | 270° |
| 2026-05-06 23:17 | 45.49213 | -122.33224 | 3296 ft | 205 kts | 290° |
| 2026-05-06 23:17 | 45.49867 | -122.35025 | 3101 ft | 206 kts | 298° |
| 2026-05-06 23:17 | 45.50566 | -122.36797 | 3016 ft | 204 kts | 298° |
| 2026-05-06 23:18 | 45.51257 | -122.38552 | 2885 ft | 200 kts | 299° |
| 2026-05-06 23:18 | 45.51918 | -122.40233 | 2654 ft | 189 kts | 298° |
| 2026-05-06 23:18 | 45.52537 | -122.41809 | 2409 ft | 174 kts | 298° |
| 2026-05-06 23:18 | 45.53110 | -122.43271 | 2183 ft | 168 kts | 298° |
| 2026-05-06 23:19 | 45.53676 | -122.44715 | 1987 ft | 165 kts | 297° |
| 2026-05-06 23:19 | 45.54233 | -122.46137 | 1753 ft | 164 kts | 297° |
| 2026-05-06 23:19 | 45.54787 | -122.47550 | 1528 ft | 167 kts | 298° |
| 2026-05-06 23:19 | 45.55339 | -122.48958 | 1302 ft | 154 kts | 299° |
| 2026-05-06 23:20 | 45.55852 | -122.50270 | 1092 ft | 149 kts | 299° |
| 2026-05-06 23:20 | 45.56353 | -122.51554 | 876 ft | 147 kts | 300° |
| 2026-05-06 23:20 | 45.56857 | -122.52841 | 690 ft | 145 kts | 301° |
| 2026-05-06 23:20 | 45.57342 | -122.54077 | 482 ft | 143 kts | 300° |
| 2026-05-06 23:21 | 45.57820 | -122.55311 | 295 ft | 141 kts | 300° |
| 2026-05-06 23:21 | 45.58290 | -122.56517 | 118 ft | 138 kts | 301° |
| 2026-05-06 23:21 | 45.58748 | -122.57691 | 37 ft | 126 kts | 299° |
| 2026-05-06 23:21 | 45.59094 | -122.58574 | 34 ft | 61 kts | 298° |
| 2026-05-06 23:22 | 45.59195 | -122.58922 | 36 ft | 23 kts | 288° |
| 2026-05-06 23:22 | 45.59211 | -122.59056 | 37 ft | 6 kts | 271° |
| 2026-05-06 23:22 | 45.59211 | -122.59063 | 37 ft | 0 kts | 270° |
| 2026-05-06 23:22 | 45.59211 | -122.59064 | 38 ft | 1 kts | 270° |
| 2026-05-06 23:23 | 45.59211 | -122.59132 | 38 ft | 10 kts | 270° |
| 2026-05-06 23:23 | 45.59210 | -122.59240 | 35 ft | 12 kts | 269° |
| 2026-05-06 23:23 | 45.59208 | -122.59377 | 31 ft | 15 kts | 271° |
| 2026-05-06 23:23 | 45.59221 | -122.59488 | 30 ft | 6 kts | 223° |
| 2026-05-06 23:24 | 45.59189 | -122.59507 | 30 ft | 4 kts | 198° |
| 2026-05-06 23:24 | 45.59170 | -122.59516 | 31 ft | 2 kts | 196° |
| 2026-05-06 23:24 | 45.59165 | -122.59518 | 31 ft | 2 kts | 196° |
| 2026-05-06 23:24 | 45.59162 | -122.59519 | 31 ft | 0 kts | 196° |